Time;durP1;ratioP1;P1;durP2;ratioP2;P2;SDS_P1;SDS_P2;PMS_P1;PMS_P2;Temp;Humidity;BMP_temperature;BMP_pressure;BME280_temperature;BME280_humidity;BME280_pressure;Samples;Min_cycle;Max_cycle;Signal;HPM_P1;HPM_P2
2022/11/14 00:00:27;;;;;;;49.37;27.33;;;6.90;99.90;;;;;;5012926;28;20191;-69
2022/11/14 00:02:53;;;;;;;39.90;24.63;;;6.90;99.90;;;;;;5012872;28;20860;-69
2022/11/14 00:05:20;;;;;;;47.30;25.70;;;6.90;99.90;;;;;;5012314;28;20542;-69
2022/11/14 00:07:46;;;;;;;45.20;24.90;;;6.90;99.90;;;;;;5013283;28;20468;-69
2022/11/14 00:10:16;;;;;;;48.17;27.43;;;6.90;99.90;;;;;;5012651;28;20455;-70
2022/11/14 00:12:41;;;;;;;44.50;25.90;;;6.80;99.90;;;;;;4997389;28;20640;-69
2022/11/14 00:15:07;;;;;;;51.97;27.30;;;6.80;99.90;;;;;;5012136;28;20818;-69
2022/11/14 00:17:33;;;;;;;49.97;26.30;;;6.80;99.90;;;;;;5012739;28;20177;-68
2022/11/14 00:19:58;;;;;;;46.10;27.13;;;6.80;99.90;;;;;;5012604;28;20423;-69
2022/11/14 00:22:24;;;;;;;53.23;29.73;;;6.80;99.90;;;;;;5012383;28;20650;-69
2022/11/14 00:24:49;;;;;;;49.27;27.80;;;6.80;99.90;;;;;;5011927;28;20204;-69
2022/11/14 00:27:15;;;;;;;52.10;24.77;;;6.80;99.90;;;;;;5012402;28;20567;-70
2022/11/14 00:29:41;;;;;;;54.53;29.20;;;6.80;99.90;;;;;;5012557;28;20193;-69
2022/11/14 00:32:06;;;;;;;57.60;27.90;;;6.80;99.90;;;;;;5012410;28;20180;-69
2022/11/14 00:34:33;;;;;;;53.60;30.80;;;6.70;99.90;;;;;;5012062;28;20279;-69
2022/11/14 00:36:59;;;;;;;51.37;25.13;;;6.70;99.90;;;;;;5012369;28;20633;-69
2022/11/14 00:39:24;;;;;;;51.60;27.53;;;6.70;99.90;;;;;;5012215;28;20591;-69
2022/11/14 00:41:50;;;;;;;59.90;28.03;;;6.70;99.90;;;;;;5012422;28;20620;-70
2022/11/14 00:44:15;;;;;;;66.23;28.57;;;6.70;99.90;;;;;;5011831;28;20577;-68
2022/11/14 00:46:41;;;;;;;59.50;27.00;;;6.70;99.90;;;;;;5012623;28;20183;-69
2022/11/14 00:49:07;;;;;;;56.93;27.40;;;6.70;99.90;;;;;;5012226;28;20601;-69
2022/11/14 00:51:32;;;;;;;56.90;27.93;;;6.70;99.90;;;;;;5011916;28;20627;-68
2022/11/14 00:53:58;;;;;;;46.07;25.00;;;6.70;99.90;;;;;;5012537;28;20199;-70
2022/11/14 00:56:23;;;;;;;56.30;28.17;;;6.70;99.90;;;;;;5011899;28;20643;-68
2022/11/14 00:58:49;;;;;;;57.20;28.00;;;6.60;99.90;;;;;;5011988;28;20176;-69
2022/11/14 01:01:14;;;;;;;60.30;26.80;;;6.60;99.90;;;;;;5011426;28;20191;-68
2022/11/14 01:03:40;;;;;;;47.60;24.50;;;6.60;99.90;;;;;;5011270;28;20187;-68
2022/11/14 01:06:08;;;;;;;48.83;27.00;;;6.60;99.90;;;;;;5011691;28;20646;-69
2022/11/14 01:08:33;;;;;;;60.80;28.40;;;6.50;99.90;;;;;;5011622;28;20180;-68
2022/11/14 01:10:59;;;;;;;51.27;27.20;;;6.50;99.90;;;;;;5011514;28;20462;-69
2022/11/14 01:13:30;;;;;;;50.13;28.30;;;6.50;99.90;;;;;;5011683;28;20172;-69
2022/11/14 01:16:00;;;;;;;61.60;27.47;;;6.50;99.90;;;;;;5011283;28;20770;-69
2022/11/14 01:18:25;;;;;;;48.60;25.27;;;6.50;99.90;;;;;;5011029;28;20465;-68
2022/11/14 01:20:51;;;;;;;50.53;27.87;;;6.50;99.90;;;;;;5010985;28;20510;-67
2022/11/14 01:23:17;;;;;;;56.97;26.27;;;6.40;99.90;;;;;;5010779;28;20179;-68
2022/11/14 01:25:43;;;;;;;54.00;29.17;;;6.40;99.90;;;;;;5010610;28;20540;-69
2022/11/14 01:28:14;;;;;;;55.03;28.57;;;6.40;99.90;;;;;;5011523;28;20224;-69
2022/11/14 01:30:40;;;;;;;55.10;27.73;;;6.40;99.90;;;;;;5010981;28;20531;-69
2022/11/14 01:33:06;;;;;;;63.10;30.93;;;6.30;99.90;;;;;;5011099;28;20872;-69
2022/11/14 01:35:33;;;;;;;56.47;29.63;;;6.30;99.90;;;;;;5010581;28;20403;-69
2022/11/14 01:38:00;;;;;;;67.07;31.13;;;6.30;99.90;;;;;;5010835;28;20478;-69
2022/11/14 01:40:26;;;;;;;55.07;27.47;;;6.30;99.90;;;;;;5010679;28;20447;-70
2022/11/14 01:43:10;;;;;;;50.70;28.60;;;6.30;99.90;;;;;;5010789;28;20470;-69
2022/11/14 01:45:56;;;;;;;64.93;31.50;;;6.30;99.90;;;;;;5010729;28;20498;-69
2022/11/14 01:48:36;;;;;;;62.33;30.73;;;6.30;99.90;;;;;;5011205;28;20439;-70
2022/11/14 01:51:22;;;;;;;63.80;29.97;;;6.20;99.90;;;;;;5010716;28;20957;-70
2022/11/14 01:53:50;;;;;;;62.50;28.43;;;6.20;99.90;;;;;;4974579;28;20502;-70
2022/11/14 01:56:20;;;;;;;61.00;30.40;;;6.20;99.90;;;;;;5008607;28;20944;-69
2022/11/14 01:58:53;;;;;;;59.00;25.90;;;6.20;99.90;;;;;;5014934;28;20423;-70
2022/11/14 02:01:19;;;;;;;59.67;31.27;;;6.20;99.90;;;;;;5013553;28;20446;-69
2022/11/14 02:03:48;;;;;;;54.73;28.63;;;6.20;99.90;;;;;;5014168;28;20914;-69
2022/11/14 02:06:18;;;;;;;63.33;27.20;;;6.10;99.90;;;;;;5014605;28;20191;-70
2022/11/14 02:08:44;;;;;;;64.87;30.97;;;6.10;99.90;;;;;;5015242;28;20437;-69
2022/11/14 02:11:11;;;;;;;55.60;29.97;;;6.20;99.90;;;;;;5014270;28;20463;-69
2022/11/14 02:13:37;;;;;;;58.13;25.80;;;6.20;99.90;;;;;;5014442;28;20430;-69
2022/11/14 02:16:03;;;;;;;73.20;31.10;;;6.20;99.90;;;;;;5014267;28;20433;-69
2022/11/14 02:18:28;;;;;;;54.93;27.60;;;6.20;99.90;;;;;;5014072;28;20415;-69
2022/11/14 02:20:54;;;;;;;61.43;27.80;;;6.30;99.90;;;;;;5014203;28;20427;-69
2022/11/14 02:23:28;;;;;;;57.13;28.70;;;6.30;99.90;;;;;;5013962;28;20192;-69
2022/11/14 02:25:54;;;;;;;74.07;30.27;;;6.30;99.90;;;;;;5013692;28;20192;-68
2022/11/14 02:28:20;;;;;;;56.13;27.57;;;6.40;99.90;;;;;;5012285;28;21020;-70
2022/11/14 02:30:46;;;;;;;60.50;27.27;;;6.40;99.90;;;;;;5010680;28;20475;-69
2022/11/14 02:33:12;;;;;;;50.97;27.47;;;6.40;99.90;;;;;;5013840;28;20514;-69
2022/11/14 02:35:37;;;;;;;66.97;27.30;;;6.40;99.90;;;;;;5013934;28;20582;-69
2022/11/14 02:38:03;;;;;;;53.13;26.93;;;6.40;99.90;;;;;;5014404;28;20188;-69
2022/11/14 02:40:29;;;;;;;57.37;28.70;;;6.40;99.90;;;;;;5013918;28;20188;-70
2022/11/14 02:42:54;;;;;;;50.80;25.03;;;6.40;99.90;;;;;;5013602;28;20180;-69
2022/11/14 02:45:20;;;;;;;54.90;29.53;;;6.40;99.90;;;;;;5013575;28;20225;-69
2022/11/14 02:47:46;;;;;;;72.50;30.83;;;6.40;99.90;;;;;;5013500;28;20267;-70
2022/11/14 02:50:11;;;;;;;50.87;25.67;;;6.40;99.90;;;;;;5014003;28;20283;-68
2022/11/14 02:52:37;;;;;;;58.73;27.80;;;6.40;99.90;;;;;;5010982;28;20188;-69
2022/11/14 02:55:04;;;;;;;66.93;31.17;;;6.40;99.90;;;;;;5012908;28;20200;-69
2022/11/14 02:57:29;;;;;;;55.77;28.90;;;6.40;99.90;;;;;;5012979;28;20173;-69
2022/11/14 02:59:55;;;;;;;61.40;28.83;;;6.40;99.90;;;;;;5011809;28;20936;-69
2022/11/14 03:02:20;;;;;;;73.73;30.53;;;6.40;99.90;;;;;;4997858;28;20255;-69
2022/11/14 03:04:46;;;;;;;68.77;30.00;;;6.40;99.90;;;;;;5006541;28;20203;-69
2022/11/14 03:07:12;;;;;;;60.70;28.20;;;6.40;99.90;;;;;;5013735;28;20573;-68
2022/11/14 03:09:37;;;;;;;62.13;26.60;;;6.40;99.90;;;;;;5013224;28;20231;-68
2022/11/14 03:12:03;;;;;;;58.77;28.87;;;6.30;99.90;;;;;;5013711;28;20176;-69
2022/11/14 03:14:32;;;;;;;65.40;28.50;;;6.30;99.90;;;;;;5013733;28;20279;-68
2022/11/14 03:16:57;;;;;;;66.23;30.13;;;6.30;99.90;;;;;;5013054;28;20616;-68
2022/11/14 03:19:23;;;;;;;66.73;27.07;;;6.30;99.90;;;;;;5012860;28;20420;-70
2022/11/14 03:21:48;;;;;;;69.93;27.53;;;6.30;99.90;;;;;;5013403;28;20376;-70
2022/11/14 03:24:14;;;;;;;68.60;29.30;;;6.30;99.90;;;;;;5013323;28;20180;-69
2022/11/14 03:26:40;;;;;;;66.70;28.27;;;6.30;99.90;;;;;;5014501;28;20647;-69
2022/11/14 03:29:05;;;;;;;55.00;27.30;;;6.30;99.90;;;;;;5013227;28;20177;-68
2022/11/14 03:31:31;;;;;;;57.10;27.40;;;6.30;99.90;;;;;;5013324;28;20207;-69
2022/11/14 03:33:56;;;;;;;69.07;31.10;;;6.30;99.90;;;;;;5013183;28;20211;-69
2022/11/14 03:36:22;;;;;;;64.40;29.13;;;6.30;99.90;;;;;;5013096;28;20173;-69
2022/11/14 03:38:48;;;;;;;55.80;28.57;;;6.20;99.90;;;;;;5013131;28;20175;-69
2022/11/14 03:41:13;;;;;;;66.20;29.87;;;6.30;99.90;;;;;;5013267;28;20697;-69
2022/11/14 03:43:39;;;;;;;65.50;32.77;;;6.30;99.90;;;;;;5013110;28;20181;-69
2022/11/14 03:46:04;;;;;;;63.37;27.87;;;6.20;99.90;;;;;;5012942;28;20258;-68
2022/11/14 03:48:30;;;;;;;70.90;30.17;;;6.20;99.90;;;;;;5013290;28;20562;-69
2022/11/14 03:50:56;;;;;;;55.83;30.10;;;6.20;99.90;;;;;;5013060;28;20192;-70
2022/11/14 03:53:22;;;;;;;61.87;27.67;;;6.20;99.90;;;;;;5000009;28;20408;-69
2022/11/14 03:55:49;;;;;;;65.57;27.70;;;6.20;99.90;;;;;;4993366;28;20464;-69
2022/11/14 03:58:15;;;;;;;57.67;28.40;;;6.20;99.90;;;;;;4993470;28;20412;-69
2022/11/14 04:00:40;;;;;;;65.87;30.00;;;6.10;99.90;;;;;;4993261;28;20435;-69
2022/11/14 04:03:06;;;;;;;69.23;28.67;;;6.10;99.90;;;;;;4993281;28;20173;-69
2022/11/14 04:05:32;;;;;;;65.00;29.40;;;6.00;99.90;;;;;;4993049;28;20215;-69
2022/11/14 04:07:57;;;;;;;68.87;34.10;;;6.10;99.90;;;;;;5005131;28;20267;-69
2022/11/14 04:10:23;;;;;;;65.53;30.07;;;6.10;99.90;;;;;;5012319;28;20279;-69
2022/11/14 04:12:50;;;;;;;50.63;27.60;;;6.10;99.90;;;;;;5013299;28;20173;-70
2022/11/14 04:15:17;;;;;;;72.30;30.43;;;6.10;99.90;;;;;;5012312;28;20233;-69
2022/11/14 04:17:43;;;;;;;69.17;29.53;;;6.10;99.90;;;;;;5012513;28;20414;-69
2022/11/14 04:20:09;;;;;;;71.17;30.17;;;6.10;99.90;;;;;;5013052;28;20403;-69
2022/11/14 04:22:35;;;;;;;71.47;30.70;;;6.00;99.90;;;;;;5012406;28;20423;-68
2022/11/14 04:25:00;;;;;;;66.87;28.90;;;6.00;99.90;;;;;;5012611;28;20562;-69
2022/11/14 04:27:26;;;;;;;70.97;30.13;;;6.00;99.90;;;;;;5012658;28;20256;-69
2022/11/14 04:29:52;;;;;;;69.20;28.80;;;6.00;99.90;;;;;;5009616;28;20195;-69
2022/11/14 04:32:17;;;;;;;75.50;30.13;;;6.00;99.90;;;;;;5012215;28;20281;-69
2022/11/14 04:34:43;;;;;;;70.37;31.97;;;5.90;99.90;;;;;;5012123;28;20184;-69
2022/11/14 04:37:08;;;;;;;64.33;30.63;;;5.90;99.90;;;;;;5012213;28;20177;-70
2022/11/14 04:39:34;;;;;;;70.50;30.57;;;5.90;99.90;;;;;;5011975;28;20565;-70
2022/11/14 04:42:00;;;;;;;72.83;31.90;;;5.80;99.90;;;;;;5011831;28;20176;-69
2022/11/14 04:44:25;;;;;;;70.90;32.20;;;5.80;99.90;;;;;;5011714;28;20207;-69
2022/11/14 04:46:51;;;;;;;62.83;29.00;;;5.80;99.90;;;;;;5011648;28;20180;-69
2022/11/14 04:49:16;;;;;;;69.37;32.10;;;5.80;99.90;;;;;;5011677;28;20175;-70
2022/11/14 04:51:42;;;;;;;73.63;30.80;;;5.80;99.90;;;;;;5011644;28;20208;-69
2022/11/14 04:54:07;;;;;;;74.83;31.17;;;5.80;99.90;;;;;;5011711;28;20726;-69
2022/11/14 04:56:33;;;;;;;62.30;28.30;;;5.70;99.90;;;;;;5011820;28;20627;-69
2022/11/14 04:58:59;;;;;;;68.67;29.67;;;5.70;99.90;;;;;;5011633;28;20246;-69
2022/11/14 05:01:24;;;;;;;66.90;28.60;;;5.70;99.90;;;;;;5010976;28;20180;-69
2022/11/14 05:03:50;;;;;;;80.53;30.47;;;5.80;99.90;;;;;;5011607;28;20177;-69
2022/11/14 05:06:15;;;;;;;72.33;34.70;;;5.80;99.90;;;;;;5011528;28;20180;-69
2022/11/14 05:08:41;;;;;;;82.73;32.13;;;5.90;99.90;;;;;;5011954;28;20206;-70
2022/11/14 05:11:06;;;;;;;72.40;30.23;;;5.90;99.90;;;;;;5011545;28;20200;-69
2022/11/14 05:13:32;;;;;;;88.57;34.00;;;5.90;99.90;;;;;;5011550;28;20172;-69
2022/11/14 05:15:59;;;;;;;78.37;31.57;;;5.90;99.90;;;;;;5011020;28;20287;-70
2022/11/14 05:18:25;;;;;;;71.50;30.87;;;5.90;99.90;;;;;;5011528;28;20176;-69
2022/11/14 05:20:50;;;;;;;81.43;31.40;;;5.90;99.90;;;;;;5011210;28;20793;-68
2022/11/14 05:23:22;;;;;;;60.13;29.73;;;5.80;99.90;;;;;;5011448;28;20182;-69
2022/11/14 05:26:04;;;;;;;69.63;29.97;;;5.80;99.90;;;;;;5010389;28;20204;-68
2022/11/14 05:28:30;;;;;;;67.83;30.70;;;5.80;99.90;;;;;;5010516;28;20423;-68
2022/11/14 05:31:09;;;;;;;71.63;31.57;;;5.80;99.90;;;;;;5010961;28;20497;-68
2022/11/14 05:33:35;;;;;;;70.13;32.23;;;5.80;99.90;;;;;;5010929;28;20179;-68
2022/11/14 05:36:21;;;;;;;77.30;29.10;;;5.80;99.90;;;;;;5010757;28;20510;-69
2022/11/14 05:38:46;;;;;;;64.03;28.70;;;5.80;99.90;;;;;;5011039;28;20844;-68
2022/11/14 05:41:15;;;;;;;72.37;31.90;;;5.90;99.90;;;;;;5010733;28;20455;-69
2022/11/14 05:43:40;;;;;;;89.33;32.50;;;5.90;99.90;;;;;;5010550;28;20230;-68
2022/11/14 05:46:09;;;;;;;80.20;31.13;;;5.90;99.90;;;;;;5010591;28;20434;-68
2022/11/14 05:48:35;;;;;;;73.60;30.27;;;5.90;99.90;;;;;;5010771;28;20176;-68
2022/11/14 05:51:02;;;;;;;91.67;35.30;;;6.00;99.90;;;;;;5010548;28;20865;-68
2022/11/14 05:53:30;;;;;;;75.83;29.30;;;5.90;99.90;;;;;;5011023;28;20176;-69
2022/11/14 05:56:03;;;;;;;61.90;26.83;;;5.90;99.90;;;;;;5010703;28;21063;-68
2022/11/14 05:58:30;;;;;;;85.27;31.50;;;6.00;99.90;;;;;;4991705;28;20396;-69
2022/11/14 06:01:08;;;;;;;85.27;30.80;;;6.00;99.90;;;;;;5006872;28;20438;-68
2022/11/14 06:03:36;;;;;;;66.90;28.87;;;6.00;99.90;;;;;;4996192;28;20481;-68
2022/11/14 06:06:03;;;;;;;68.33;31.03;;;6.00;99.90;;;;;;5010450;28;20459;-69
2022/11/14 06:08:30;;;;;;;66.63;29.87;;;6.00;99.90;;;;;;5010798;28;20415;-69
2022/11/14 06:10:55;;;;;;;72.00;32.03;;;6.00;99.90;;;;;;5010499;28;20508;-69
2022/11/14 06:13:23;;;;;;;64.77;29.57;;;6.00;99.90;;;;;;5010596;28;20921;-69
2022/11/14 06:15:49;;;;;;;64.90;26.87;;;6.00;99.90;;;;;;5009218;28;20230;-71
2022/11/14 06:18:15;;;;;;;68.57;29.27;;;6.00;99.90;;;;;;5010330;28;20766;-68
2022/11/14 06:20:40;;;;;;;79.50;31.20;;;6.00;99.90;;;;;;5010492;28;20568;-68
2022/11/14 06:23:06;;;;;;;74.53;30.00;;;6.00;99.90;;;;;;5010572;28;20259;-68
2022/11/14 06:25:32;;;;;;;81.43;30.47;;;6.10;99.90;;;;;;5010090;28;20200;-68
2022/11/14 06:27:58;;;;;;;60.67;30.40;;;6.00;99.90;;;;;;5010889;28;20655;-68
2022/11/14 06:30:23;;;;;;;67.63;28.77;;;6.00;99.90;;;;;;5010822;28;20212;-69
2022/11/14 06:32:49;;;;;;;83.93;30.90;;;6.00;99.90;;;;;;5010591;28;20407;-69
2022/11/14 06:35:14;;;;;;;87.17;31.33;;;6.00;99.90;;;;;;5010511;28;20184;-69
2022/11/14 06:37:40;;;;;;;68.90;30.80;;;5.90;99.90;;;;;;5011033;28;20694;-69
2022/11/14 06:40:06;;;;;;;83.90;31.40;;;5.90;99.90;;;;;;5014193;28;20879;-68
2022/11/14 06:42:32;;;;;;;76.43;30.17;;;5.90;99.90;;;;;;5015261;28;20202;-68
2022/11/14 06:44:57;;;;;;;67.63;30.13;;;5.80;99.90;;;;;;5013286;28;20458;-69
2022/11/14 06:49:51;;;;;;;63.80;29.17;;;5.90;99.90;;;;;;4992097;28;20629;-66
2022/11/14 06:52:16;;;;;;;61.20;26.90;;;5.90;99.90;;;;;;4994490;28;20462;-66
2022/11/14 06:54:42;;;;;;;73.63;27.93;;;5.90;99.90;;;;;;4994746;28;20750;-65
2022/11/14 06:57:07;;;;;;;61.73;27.43;;;5.90;99.90;;;;;;4994492;28;20192;-65
2022/11/14 06:59:33;;;;;;;68.33;32.00;;;5.90;99.90;;;;;;4994442;28;20272;-66
2022/11/14 07:01:58;;;;;;;67.60;27.93;;;6.00;99.90;;;;;;4994724;28;20188;-65
2022/11/14 07:04:24;;;;;;;58.47;26.63;;;6.00;99.90;;;;;;4994905;28;20169;-65
2022/11/14 07:06:49;;;;;;;66.63;28.40;;;6.00;99.90;;;;;;4994728;28;20674;-66
2022/11/14 07:09:15;;;;;;;65.13;25.57;;;6.00;99.90;;;;;;4994715;28;20864;-68
2022/11/14 07:11:40;;;;;;;67.43;28.53;;;6.00;99.90;;;;;;4993995;28;20272;-65
2022/11/14 07:14:07;;;;;;;67.10;28.07;;;6.00;99.90;;;;;;4994193;28;20245;-65
2022/11/14 07:16:35;;;;;;;74.60;29.77;;;6.00;99.90;;;;;;4994596;28;20662;-65
2022/11/14 07:19:05;;;;;;;74.07;28.07;;;6.00;99.90;;;;;;4994120;28;20443;-65
2022/11/14 07:21:32;;;;;;;71.77;29.47;;;6.10;99.90;;;;;;4994527;28;20408;-65
2022/11/14 07:23:58;;;;;;;57.80;28.07;;;6.10;99.90;;;;;;4993793;28;20432;-65
2022/11/14 07:26:24;;;;;;;71.10;29.70;;;6.20;99.90;;;;;;4993637;28;20416;-65
2022/11/14 07:28:50;;;;;;;72.80;29.30;;;6.20;99.90;;;;;;4994169;28;20576;-66
2022/11/14 07:31:18;;;;;;;64.67;27.07;;;6.10;99.90;;;;;;4994068;28;20455;-65
2022/11/14 07:33:45;;;;;;;68.43;29.47;;;6.10;99.90;;;;;;4993947;28;20263;-63
2022/11/14 07:36:12;;;;;;;63.40;27.90;;;6.20;99.90;;;;;;4993803;28;20483;-69
2022/11/14 07:38:38;;;;;;;72.83;28.47;;;6.20;99.90;;;;;;4993760;28;20519;-67
2022/11/14 07:41:05;;;;;;;62.47;28.03;;;6.30;99.90;;;;;;4993703;28;20842;-69
2022/11/14 07:43:31;;;;;;;61.97;29.00;;;6.30;99.90;;;;;;4992613;28;20416;-67
2022/11/14 07:46:01;;;;;;;64.30;28.47;;;6.50;99.90;;;;;;4996345;28;20483;-67
2022/11/14 07:48:28;;;;;;;60.30;27.10;;;6.80;99.90;;;;;;4993758;28;20687;-67
2022/11/14 07:51:00;;;;;;;65.80;28.80;;;7.10;99.90;;;;;;4993113;28;20875;-66
2022/11/14 07:53:27;;;;;;;55.97;25.90;;;7.30;99.90;;;;;;4994045;28;20401;-67
2022/11/14 07:55:53;;;;;;;61.17;27.23;;;7.30;99.90;;;;;;4992949;28;20408;-69
2022/11/14 07:58:19;;;;;;;53.53;25.70;;;7.40;99.90;;;;;;4992468;28;21025;-67
2022/11/14 08:00:44;;;;;;;64.67;27.53;;;7.40;99.90;;;;;;4988712;28;20421;-67
2022/11/14 08:03:10;;;;;;;57.27;25.43;;;7.20;99.90;;;;;;4992250;28;20420;-67
2022/11/14 08:05:36;;;;;;;60.10;25.70;;;7.20;99.90;;;;;;4992388;28;20260;-67
2022/11/14 08:08:02;;;;;;;52.60;25.30;;;7.10;99.90;;;;;;4992489;28;20205;-66
2022/11/14 08:10:27;;;;;;;57.63;25.40;;;7.00;99.90;;;;;;4992290;28;20197;-66
2022/11/14 08:13:02;;;;;;;51.80;25.47;;;6.90;99.90;;;;;;4992013;28;20425;-66
2022/11/14 08:15:28;;;;;;;60.07;24.97;;;6.80;99.90;;;;;;4991890;28;20164;-66
2022/11/14 08:18:01;;;;;;;55.90;25.63;;;6.80;99.90;;;;;;4991877;28;20463;-66
2022/11/14 08:20:27;;;;;;;66.93;27.57;;;6.90;99.90;;;;;;5003877;28;20411;-67
2022/11/14 08:23:00;;;;;;;57.10;22.90;;;6.80;99.90;;;;;;4997670;28;20479;-65
2022/11/14 08:25:25;;;;;;;57.20;25.87;;;6.70;99.90;;;;;;5010994;28;20525;-66
2022/11/14 08:27:52;;;;;;;55.50;25.57;;;6.70;99.90;;;;;;5000509;28;20468;-66
2022/11/14 08:30:18;;;;;;;51.33;25.40;;;6.70;99.90;;;;;;4994014;28;20197;-65
2022/11/14 08:32:43;;;;;;;52.20;24.63;;;6.80;99.90;;;;;;4992221;28;20964;-65
2022/11/14 08:35:09;;;;;;;54.97;26.53;;;6.90;99.90;;;;;;4991549;28;20534;-66
2022/11/14 08:37:34;;;;;;;50.80;26.20;;;6.80;99.90;;;;;;4991640;28;20293;-66
2022/11/14 08:40:00;;;;;;;58.23;26.60;;;6.80;99.90;;;;;;4991308;28;20184;-66
2022/11/14 08:42:26;;;;;;;56.70;28.43;;;6.90;99.90;;;;;;4991909;28;20192;-66
2022/11/14 08:44:51;;;;;;;51.93;26.03;;;6.90;99.90;;;;;;4991553;28;20180;-65
2022/11/14 08:47:17;;;;;;;59.50;24.30;;;7.00;99.90;;;;;;4992023;28;20177;-66
2022/11/14 08:49:42;;;;;;;61.93;28.23;;;7.10;99.90;;;;;;4986393;28;20668;-66
2022/11/14 08:52:08;;;;;;;60.23;24.67;;;7.10;99.90;;;;;;4988872;28;20611;-66
2022/11/14 08:54:33;;;;;;;51.40;23.77;;;7.10;99.90;;;;;;4990942;28;20173;-66
2022/11/14 08:56:59;;;;;;;54.33;24.73;;;7.10;99.90;;;;;;4992413;28;20176;-66
2022/11/14 08:59:25;;;;;;;52.93;22.70;;;7.20;99.90;;;;;;4992105;28;20192;-65
2022/11/14 09:01:50;;;;;;;56.03;26.13;;;7.20;99.90;;;;;;4979580;28;20641;-66
2022/11/14 09:04:16;;;;;;;57.97;25.33;;;7.30;99.90;;;;;;4991202;28;20169;-67
2022/11/14 09:06:41;;;;;;;50.97;25.00;;;7.40;99.90;;;;;;4990188;28;20239;-67
2022/11/14 09:09:07;;;;;;;51.50;24.23;;;7.60;99.90;;;;;;5003965;28;20189;-67
2022/11/14 09:11:32;;;;;;;52.60;24.53;;;7.70;99.90;;;;;;5000310;28;20300;-67
2022/11/14 09:14:00;;;;;;;51.57;22.33;;;7.70;99.90;;;;;;4992259;28;20219;-67
2022/11/14 09:16:25;;;;;;;46.23;22.63;;;7.70;99.90;;;;;;4992723;28;20651;-67
2022/11/14 09:18:51;;;;;;;52.63;22.80;;;7.70;99.90;;;;;;4992434;28;20502;-67
2022/11/14 09:21:16;;;;;;;48.67;25.30;;;7.70;99.90;;;;;;4992577;28;20263;-67
2022/11/14 09:23:42;;;;;;;56.07;26.10;;;7.60;99.90;;;;;;4992280;28;20193;-72
2022/11/14 09:26:08;;;;;;;57.77;22.60;;;7.70;99.90;;;;;;4991512;28;20220;-66
2022/11/14 09:28:35;;;;;;;55.83;24.50;;;7.80;99.90;;;;;;4993618;28;20224;-67
2022/11/14 09:31:02;;;;;;;55.63;25.53;;;7.80;99.90;;;;;;5002088;28;20464;-67
2022/11/14 09:33:28;;;;;;;48.30;22.67;;;7.70;99.90;;;;;;4991430;28;20421;-67
2022/11/14 09:35:58;;;;;;;49.83;23.67;;;7.60;99.90;;;;;;4990633;28;20487;-67
2022/11/14 09:38:24;;;;;;;45.93;25.10;;;7.60;99.90;;;;;;4984771;28;20248;-66
2022/11/14 09:41:00;;;;;;;49.47;23.50;;;7.50;99.90;;;;;;4991611;28;20906;-67
2022/11/14 09:43:40;;;;;;;43.90;23.10;;;7.50;99.90;;;;;;4999943;28;20184;-67
2022/11/14 09:46:24;;;;;;;58.23;24.73;;;7.60;99.90;;;;;;4993017;28;20835;-67
2022/11/14 09:48:51;;;;;;;46.73;21.60;;;7.60;99.90;;;;;;4991664;28;20488;-67
2022/11/14 09:51:23;;;;;;;49.07;20.90;;;7.60;99.90;;;;;;4989451;28;20542;-67
2022/11/14 09:54:06;;;;;;;50.93;23.13;;;7.70;99.90;;;;;;4978691;28;20596;-67
2022/11/14 09:56:32;;;;;;;45.77;22.80;;;7.70;99.90;;;;;;4991107;28;20412;-67
2022/11/14 09:58:58;;;;;;;38.47;21.40;;;7.70;99.90;;;;;;4991524;28;20425;-67
2022/11/14 10:01:47;;;;;;;53.27;23.80;;;7.80;99.90;;;;;;4991317;28;20503;-67
2022/11/14 10:04:42;;;;;;;47.07;21.80;;;7.80;99.90;;;;;;4991666;28;20561;-67
2022/11/14 10:07:32;;;;;;;37.90;20.17;;;7.90;99.90;;;;;;4985944;28;20429;-67
2022/11/14 10:10:25;;;;;;;50.37;23.33;;;8.00;99.90;;;;;;4982229;28;20575;-65
2022/11/14 10:13:11;;;;;;;47.90;21.60;;;8.10;99.90;;;;;;4991929;28;20448;-65
2022/11/14 10:15:51;;;;;;;48.63;21.07;;;8.20;99.90;;;;;;4995830;28;20492;-65
2022/11/14 10:18:49;;;;;;;39.33;19.20;;;8.30;99.90;;;;;;4995812;28;20443;-67
2022/11/14 10:21:20;;;;;;;38.00;23.47;;;8.30;99.90;;;;;;4974200;28;20978;-66
2022/11/14 10:23:52;;;;;;;48.47;22.00;;;8.30;99.90;;;;;;4984564;28;20509;-65
2022/11/14 10:26:30;;;;;;;54.30;24.30;;;8.40;99.90;;;;;;4993458;28;20524;-65
2022/11/14 10:29:40;;;;;;;53.47;23.80;;;8.50;99.90;;;;;;4995070;28;20448;-66
2022/11/14 10:32:34;;;;;;;46.17;22.40;;;8.60;99.90;;;;;;4992320;28;20440;-66
2022/11/14 10:35:15;;;;;;;50.00;25.00;;;8.70;99.90;;;;;;4994904;28;20407;-66
2022/11/14 10:37:54;;;;;;;37.67;21.03;;;8.70;99.90;;;;;;4990001;28;20820;-66
2022/11/14 10:40:54;;;;;;;43.60;22.10;;;8.80;99.90;;;;;;4994640;28;20415;-65
2022/11/14 10:43:46;;;;;;;43.23;21.27;;;8.90;99.90;;;;;;4994399;28;20429;-65
2022/11/14 10:46:37;;;;;;;41.97;21.83;;;8.90;99.90;;;;;;4997959;28;20411;-66
2022/11/14 10:49:24;;;;;;;38.50;22.13;;;8.90;99.90;;;;;;4993785;28;20846;-66
2022/11/14 10:51:54;;;;;;;40.97;21.30;;;8.90;99.90;;;;;;4994240;28;20477;-65
2022/11/14 10:54:39;;;;;;;47.37;20.50;;;8.90;99.90;;;;;;4994226;28;20421;-66
2022/11/14 10:57:18;;;;;;;34.77;19.77;;;8.90;99.90;;;;;;5002392;28;20494;-66
2022/11/14 10:59:43;;;;;;;29.70;16.20;;;9.00;99.90;;;;;;4988830;28;20450;-64
2022/11/14 11:02:09;;;;;;;35.93;17.53;;;9.00;99.90;;;;;;4984694;28;20424;-67
2022/11/14 11:04:37;;;;;;;41.80;20.83;;;9.00;99.90;;;;;;4993764;28;20179;-65
2022/11/14 11:07:06;;;;;;;42.30;21.77;;;9.20;99.90;;;;;;4994405;28;20486;-65
2022/11/14 11:12:23;;;;;;;31.33;19.73;;;9.30;99.90;;;;;;4994529;28;20882;-66
2022/11/14 11:15:09;;;;;;;45.00;20.30;;;9.40;99.90;;;;;;4994148;28;20410;-65
2022/11/14 11:17:35;;;;;;;35.07;19.93;;;9.40;99.90;;;;;;4993599;28;20505;-66
2022/11/14 11:20:28;;;;;;;36.47;19.80;;;9.50;99.90;;;;;;4994010;28;20486;-66
2022/11/14 11:23:08;;;;;;;33.73;18.80;;;9.50;99.90;;;;;;4994114;28;20167;-66
2022/11/14 11:25:35;;;;;;;33.37;18.93;;;9.50;99.90;;;;;;4991438;28;20460;-64
2022/11/14 11:28:13;;;;;;;32.67;17.93;;;9.50;99.90;;;;;;4994228;28;20792;-66
2022/11/14 11:30:53;;;;;;;31.93;17.37;;;9.50;99.90;;;;;;4994579;28;20463;-67
2022/11/14 11:33:18;;;;;;;29.07;20.20;;;9.60;99.90;;;;;;4993582;28;20440;-65
2022/11/14 11:35:46;;;;;;;45.50;20.60;;;9.70;99.90;;;;;;4993660;28;20945;-65
2022/11/14 11:38:13;;;;;;;37.53;18.57;;;9.60;99.90;;;;;;4994365;28;20215;-64
2022/11/14 11:40:41;;;;;;;36.90;18.80;;;9.70;99.90;;;;;;4994039;28;20411;-67
2022/11/14 11:43:35;;;;;;;33.17;17.50;;;9.80;99.90;;;;;;4998498;28;20423;-65
2022/11/14 11:46:08;;;;;;;30.37;17.63;;;9.80;99.90;;;;;;5003223;28;20415;-65
2022/11/14 11:48:37;;;;;;;34.67;18.40;;;9.70;99.90;;;;;;5013224;28;20453;-68
2022/11/14 11:51:08;;;;;;;38.07;18.70;;;9.80;99.90;;;;;;4996272;28;20461;-68
2022/11/14 11:53:40;;;;;;;29.53;16.93;;;9.80;99.90;;;;;;4987002;28;20546;-66
2022/11/14 11:56:10;;;;;;;30.13;16.50;;;9.80;99.90;;;;;;4992297;28;20419;-66
2022/11/14 11:58:46;;;;;;;37.17;20.20;;;9.90;99.90;;;;;;4993362;28;20439;-66
2022/11/14 12:01:13;;;;;;;38.00;18.93;;;9.80;99.90;;;;;;4993543;28;20477;-70
2022/11/14 12:03:46;;;;;;;33.03;18.80;;;9.90;99.90;;;;;;4994102;28;20411;-66
2022/11/14 12:06:27;;;;;;;36.20;19.00;;;9.90;99.90;;;;;;4993610;28;20441;-66
2022/11/14 12:09:22;;;;;;;37.07;21.30;;;10.00;99.90;;;;;;4993790;28;20813;-65
2022/11/14 12:11:58;;;;;;;31.77;17.17;;;9.90;99.90;;;;;;4986473;28;20511;-66
2022/11/14 12:14:52;;;;;;;37.27;20.40;;;10.00;99.90;;;;;;4974745;28;20450;-65
2022/11/14 12:17:33;;;;;;;33.67;18.50;;;10.10;99.90;;;;;;4986855;28;20407;-66
2022/11/14 12:20:25;;;;;;;31.97;17.47;;;10.10;99.90;;;;;;4984295;28;20410;-66
2022/11/14 12:23:32;;;;;;;30.73;17.00;;;10.20;99.90;;;;;;4991722;28;20408;-66
2022/11/14 12:26:25;;;;;;;33.07;17.03;;;10.20;99.90;;;;;;4993325;28;20404;-66
2022/11/14 12:29:28;;;;;;;25.83;17.57;;;10.30;99.90;;;;;;4993133;28;20428;-67
2022/11/14 12:32:01;;;;;;;31.17;17.00;;;10.40;99.90;;;;;;4995262;28;20447;-65
2022/11/14 12:34:32;;;;;;;31.53;17.00;;;10.50;99.90;;;;;;5001175;28;20566;-66
2022/11/14 12:36:58;;;;;;;26.83;16.97;;;10.50;99.90;;;;;;4982975;28;20552;-66
2022/11/14 12:39:29;;;;;;;28.77;15.30;;;10.60;99.90;;;;;;4991267;28;20420;-65
2022/11/14 12:42:08;;;;;;;26.90;15.33;;;10.60;99.90;;;;;;4992032;28;20406;-66
2022/11/14 12:44:36;;;;;;;30.53;17.37;;;10.60;99.90;;;;;;4993061;28;20539;-65
2022/11/14 12:47:05;;;;;;;29.07;16.10;;;10.60;99.90;;;;;;4990909;28;20404;-65
2022/11/14 12:49:38;;;;;;;26.50;14.90;;;10.60;99.90;;;;;;4992146;28;20515;-65
2022/11/14 12:52:24;;;;;;;24.10;15.70;;;10.60;99.90;;;;;;4993099;28;20412;-65